Time;durP1;ratioP1;P1;durP2;ratioP2;P2;SDS_P1;SDS_P2;PMS_P1;PMS_P2;Temp;Humidity;BMP_temperature;BMP_pressure;BME280_temperature;BME280_humidity;BME280_pressure;Samples;Min_cycle;Max_cycle;Signal;HPM_P1;HPM_P2
2022/03/17 00:01:40;;;;;;;18.33;13.18;;;;;;;;;;4987959;28;20059;-85
2022/03/17 00:04:05;;;;;;;18.58;13.18;;;;;;;;;;4992089;28;20030;-80
2022/03/17 00:06:31;;;;;;;18.65;13.43;;;;;;;;;;4991329;28;20022;-85
2022/03/17 00:08:56;;;;;;;18.67;13.02;;;;;;;;;;4996159;28;20038;-85
2022/03/17 00:11:23;;;;;;;19.92;12.88;;;;;;;;;;4989309;28;20050;-86
2022/03/17 00:13:48;;;;;;;20.70;13.93;;;;;;;;;;5023187;28;20034;-79
2022/03/17 00:16:14;;;;;;;19.77;13.98;;;;;;;;;;4988105;28;20481;-85
2022/03/17 00:18:39;;;;;;;19.02;13.57;;;;;;;;;;4990174;28;20034;-79
2022/03/17 00:21:06;;;;;;;19.85;13.65;;;;;;;;;;4986225;28;20121;-85
2022/03/17 00:23:31;;;;;;;21.20;13.88;;;;;;;;;;4983919;28;22713;-79
2022/03/17 00:25:57;;;;;;;18.15;13.60;;;;;;;;;;4987809;28;20083;-80
2022/03/17 00:28:23;;;;;;;18.15;13.23;;;;;;;;;;4985462;28;20084;-80
2022/03/17 00:30:48;;;;;;;18.75;13.55;;;;;;;;;;4987499;28;20031;-80
2022/03/17 00:33:14;;;;;;;18.67;13.85;;;;;;;;;;4985810;28;20026;-80
2022/03/17 00:35:42;;;;;;;20.65;14.55;;;;;;;;;;4988239;28;20049;-86
2022/03/17 00:38:10;;;;;;;19.02;13.98;;;;;;;;;;4989653;28;20394;-85
2022/03/17 00:40:37;;;;;;;20.55;14.18;;;;;;;;;;4983748;28;20032;-86
2022/03/17 00:43:04;;;;;;;18.33;13.70;;;;;;;;;;4988921;28;20023;-86
2022/03/17 00:45:29;;;;;;;20.02;13.32;;;;;;;;;;4987691;28;20046;-84
2022/03/17 00:47:55;;;;;;;18.42;14.35;;;;;;;;;;4984223;28;20026;-82
2022/03/17 00:50:20;;;;;;;20.27;14.13;;;;;;;;;;4985731;28;20037;-79
2022/03/17 00:52:46;;;;;;;20.60;13.65;;;;;;;;;;4981671;28;22962;-86
2022/03/17 00:55:11;;;;;;;20.08;13.63;;;;;;;;;;4983055;28;20513;-84
2022/03/17 00:57:37;;;;;;;20.75;14.10;;;;;;;;;;4991600;28;20363;-81
2022/03/17 01:00:07;;;;;;;20.35;14.70;;;;;;;;;;4987497;28;20038;-86
2022/03/17 01:02:33;;;;;;;22.52;13.65;;;;;;;;;;4991066;28;20036;-84
2022/03/17 01:04:58;;;;;;;20.98;14.35;;;;;;;;;;4979663;28;20456;-81
2022/03/17 01:07:24;;;;;;;19.98;13.93;;;;;;;;;;4982289;28;20079;-85
2022/03/17 01:09:49;;;;;;;20.73;13.82;;;;;;;;;;4981670;28;20034;-83
2022/03/17 01:12:15;;;;;;;19.42;13.65;;;;;;;;;;5012142;28;20029;-84
2022/03/17 01:14:40;;;;;;;19.85;14.30;;;;;;;;;;4981117;28;20077;-85
2022/03/17 01:17:05;;;;;;;19.92;13.27;;;;;;;;;;5013359;28;20026;-80
2022/03/17 01:19:31;;;;;;;17.45;13.20;;;;;;;;;;4982536;28;20049;-85
2022/03/17 01:21:56;;;;;;;22.20;13.68;;;;;;;;;;4979801;28;20034;-85
2022/03/17 01:24:22;;;;;;;20.45;13.75;;;;;;;;;;4981651;28;20475;-81
2022/03/17 01:26:47;;;;;;;19.48;13.18;;;;;;;;;;4980018;28;20041;-81
2022/03/17 01:29:13;;;;;;;22.02;13.70;;;;;;;;;;4979897;28;20038;-86
2022/03/17 01:31:38;;;;;;;20.27;14.02;;;;;;;;;;4980326;28;20401;-81
2022/03/17 01:34:04;;;;;;;21.52;13.75;;;;;;;;;;4982929;28;20166;-81
2022/03/17 01:36:29;;;;;;;19.33;13.80;;;;;;;;;;5019275;28;20022;-82
2022/03/17 01:38:55;;;;;;;17.88;13.43;;;;;;;;;;4986793;28;20073;-85
2022/03/17 01:41:20;;;;;;;19.75;13.45;;;;;;;;;;4979691;28;20058;-86
2022/03/17 01:43:46;;;;;;;20.05;14.13;;;;;;;;;;4980822;28;20125;-81
2022/03/17 01:46:14;;;;;;;19.77;13.52;;;;;;;;;;4980916;28;21200;-85
2022/03/17 01:48:40;;;;;;;21.30;14.63;;;;;;;;;;4980973;28;20046;-85
2022/03/17 01:51:05;;;;;;;19.63;13.75;;;;;;;;;;4979908;28;20031;-81
2022/03/17 01:53:31;;;;;;;24.10;13.70;;;;;;;;;;4984060;28;20092;-87
2022/03/17 01:55:58;;;;;;;20.70;13.57;;;;;;;;;;4984365;28;20026;-80
2022/03/17 01:58:24;;;;;;;20.98;14.35;;;;;;;;;;4981195;28;20382;-85
2022/03/17 02:00:50;;;;;;;19.25;13.38;;;;;;;;;;4979753;28;20030;-81
2022/03/17 02:03:16;;;;;;;20.20;13.73;;;;;;;;;;4980451;28;20031;-81
2022/03/17 02:05:43;;;;;;;22.77;14.10;;;;;;;;;;4981845;28;20026;-85
2022/03/17 02:08:09;;;;;;;20.95;14.35;;;;;;;;;;4982134;28;20550;-83
2022/03/17 02:13:20;;;;;;;20.25;14.25;;;;;;;;;;4984741;28;20136;-80
2022/03/17 02:15:56;;;;;;;24.88;14.73;;;;;;;;;;4978712;28;20053;-81
2022/03/17 02:18:22;;;;;;;20.67;13.88;;;;;;;;;;4978160;28;20145;-81
2022/03/17 02:20:48;;;;;;;19.08;13.30;;;;;;;;;;4980158;28;21893;-81
2022/03/17 02:26:03;;;;;;;19.63;14.00;;;;;;;;;;4984859;28;20916;-85
2022/03/17 02:28:30;;;;;;;18.92;13.63;;;;;;;;;;4980535;28;20538;-81
2022/03/17 02:30:56;;;;;;;19.98;13.88;;;;;;;;;;4979653;28;20041;-85
2022/03/17 02:33:22;;;;;;;22.85;14.52;;;;;;;;;;4979227;28;20037;-81
2022/03/17 02:35:49;;;;;;;19.98;13.48;;;;;;;;;;5014361;28;20037;-86
2022/03/17 02:38:15;;;;;;;21.95;14.48;;;;;;;;;;4980571;28;20031;-82
2022/03/17 02:40:46;;;;;;;20.45;13.73;;;;;;;;;;4982648;28;20407;-81
2022/03/17 02:43:14;;;;;;;22.30;15.63;;;;;;;;;;5010292;28;20060;-85
2022/03/17 02:45:40;;;;;;;21.98;14.60;;;;;;;;;;4978846;28;20053;-81
2022/03/17 02:48:06;;;;;;;23.45;15.18;;;;;;;;;;4980093;28;20402;-81
2022/03/17 02:50:32;;;;;;;23.33;14.68;;;;;;;;;;4979650;28;20030;-85
2022/03/17 02:53:04;;;;;;;23.35;14.52;;;;;;;;;;4978293;28;20482;-86
2022/03/17 02:55:30;;;;;;;24.23;15.05;;;;;;;;;;4981762;28;20438;-85
2022/03/17 02:57:56;;;;;;;21.83;15.52;;;;;;;;;;5012877;28;20038;-85
2022/03/17 03:00:21;;;;;;;24.25;14.90;;;;;;;;;;4981412;28;20060;-80
2022/03/17 03:02:46;;;;;;;24.73;15.23;;;;;;;;;;4979615;28;20030;-81
2022/03/17 03:05:12;;;;;;;24.95;15.00;;;;;;;;;;4989366;28;20712;-85
2022/03/17 03:07:37;;;;;;;22.60;15.02;;;;;;;;;;4987389;28;20068;-80
2022/03/17 03:10:04;;;;;;;15.75;11.43;;;;;;;;;;4986850;28;20054;-85
2022/03/17 03:12:30;;;;;;;12.45;9.18;;;;;;;;;;4989720;28;20038;-82
2022/03/17 03:14:55;;;;;;;12.07;8.80;;;;;;;;;;4991193;28;20494;-85
2022/03/17 03:17:23;;;;;;;11.25;8.82;;;;;;;;;;4988719;28;20030;-83
2022/03/17 03:19:49;;;;;;;11.70;9.13;;;;;;;;;;4988250;28;20030;-81
2022/03/17 03:22:17;;;;;;;11.88;9.02;;;;;;;;;;5021025;28;20029;-85
2022/03/17 03:24:43;;;;;;;12.90;10.00;;;;;;;;;;4982785;28;20670;-85
2022/03/17 03:27:08;;;;;;;13.40;10.18;;;;;;;;;;4990555;28;20038;-83
2022/03/17 03:29:34;;;;;;;12.88;9.68;;;;;;;;;;5017147;28;20109;-81
2022/03/17 03:32:03;;;;;;;14.93;9.98;;;;;;;;;;4990982;28;20038;-85
2022/03/17 03:34:30;;;;;;;15.98;10.82;;;;;;;;;;4988218;28;20034;-80
2022/03/17 03:39:39;;;;;;;14.27;10.80;;;;;;;;;;4989404;28;20549;-82
2022/03/17 03:42:07;;;;;;;14.18;10.98;;;;;;;;;;5019208;28;20022;-86
2022/03/17 03:44:32;;;;;;;11.40;8.60;;;;;;;;;;4985159;28;20113;-80
2022/03/17 03:46:58;;;;;;;8.45;5.00;;;;;;;;;;4987369;28;20061;-86
2022/03/17 03:49:23;;;;;;;6.22;4.22;;;;;;;;;;5020932;28;20398;-80
2022/03/17 03:51:49;;;;;;;5.88;3.47;;;;;;;;;;4987203;28;20553;-84
2022/03/17 03:54:18;;;;;;;5.80;3.13;;;;;;;;;;4989260;28;20033;-80
2022/03/17 03:56:52;;;;;;;6.50;3.10;;;;;;;;;;4990977;28;20081;-85
2022/03/17 03:59:20;;;;;;;5.63;3.15;;;;;;;;;;4984213;28;20037;-81
2022/03/17 04:01:54;;;;;;;7.28;3.78;;;;;;;;;;4985086;28;20034;-84
2022/03/17 04:04:20;;;;;;;4.45;3.10;;;;;;;;;;4984348;28;20053;-85
2022/03/17 04:06:47;;;;;;;5.70;3.67;;;;;;;;;;4988044;28;20121;-84
2022/03/17 04:09:14;;;;;;;6.60;4.00;;;;;;;;;;4990714;28;20028;-81
2022/03/17 04:11:41;;;;;;;7.13;4.53;;;;;;;;;;4986535;28;20066;-85
2022/03/17 04:14:06;;;;;;;8.05;5.05;;;;;;;;;;4984846;28;20113;-85
2022/03/17 04:16:32;;;;;;;10.52;5.40;;;;;;;;;;5019371;28;20057;-85
2022/03/17 04:18:58;;;;;;;7.68;5.53;;;;;;;;;;4997578;28;20687;-85
2022/03/17 04:21:23;;;;;;;11.18;6.22;;;;;;;;;;5013259;28;20053;-84
2022/03/17 04:23:48;;;;;;;11.55;6.10;;;;;;;;;;4982942;28;20034;-84
2022/03/17 04:26:13;;;;;;;11.25;7.30;;;;;;;;;;5011270;28;20133;-83
2022/03/17 04:28:39;;;;;;;13.05;7.28;;;;;;;;;;4980334;28;20027;-85
2022/03/17 04:31:04;;;;;;;13.13;7.38;;;;;;;;;;4981636;28;20034;-81
2022/03/17 04:33:30;;;;;;;14.70;7.90;;;;;;;;;;4983417;28;20049;-84
2022/03/17 04:35:55;;;;;;;12.18;8.20;;;;;;;;;;4980083;28;20031;-85
2022/03/17 04:38:22;;;;;;;12.30;8.07;;;;;;;;;;4982269;28;20036;-80
2022/03/17 04:40:49;;;;;;;12.50;8.02;;;;;;;;;;4979859;28;20117;-83
2022/03/17 04:43:17;;;;;;;13.07;7.88;;;;;;;;;;4983536;28;20117;-82
2022/03/17 04:45:44;;;;;;;13.27;8.30;;;;;;;;;;4981121;28;20038;-86
2022/03/17 04:48:09;;;;;;;11.57;8.20;;;;;;;;;;4981397;28;20045;-80
2022/03/17 04:50:35;;;;;;;12.50;8.55;;;;;;;;;;5014738;28;20497;-85
2022/03/17 04:55:44;;;;;;;15.77;8.90;;;;;;;;;;4978389;28;20494;-82
2022/03/17 04:58:09;;;;;;;15.70;8.60;;;;;;;;;;4983260;28;20022;-83
2022/03/17 05:00:34;;;;;;;15.88;7.90;;;;;;;;;;4982451;28;20402;-80
2022/03/17 05:03:00;;;;;;;13.30;7.55;;;;;;;;;;5011591;28;20034;-84
2022/03/17 05:05:25;;;;;;;13.63;6.57;;;;;;;;;;4979518;28;20092;-80
2022/03/17 05:07:56;;;;;;;13.10;5.90;;;;;;;;;;4979273;28;20046;-83
2022/03/17 05:10:21;;;;;;;12.55;5.80;;;;;;;;;;4982653;28;20380;-79
2022/03/17 05:12:47;;;;;;;10.57;5.47;;;;;;;;;;4986008;28;20073;-80
2022/03/17 05:15:12;;;;;;;12.70;5.03;;;;;;;;;;4982977;28;20124;-86
2022/03/17 05:17:39;;;;;;;11.68;4.65;;;;;;;;;;4981900;28;20043;-86
2022/03/17 05:20:05;;;;;;;10.38;4.32;;;;;;;;;;5013400;28;20030;-83
2022/03/17 05:22:30;;;;;;;7.65;3.25;;;;;;;;;;4976553;28;20045;-84
2022/03/17 05:24:56;;;;;;;8.65;3.55;;;;;;;;;;4981727;28;20026;-82
2022/03/17 05:27:21;;;;;;;7.45;3.30;;;;;;;;;;4979765;28;20027;-85
2022/03/17 05:29:47;;;;;;;9.57;2.90;;;;;;;;;;4983370;28;20405;-79
2022/03/17 05:32:12;;;;;;;8.27;2.90;;;;;;;;;;4979819;28;20034;-78
2022/03/17 05:34:37;;;;;;;8.98;2.80;;;;;;;;;;4985173;28;20027;-79
2022/03/17 05:37:03;;;;;;;7.18;2.65;;;;;;;;;;4983265;28;20084;-79
2022/03/17 05:39:28;;;;;;;6.13;2.38;;;;;;;;;;4984021;28;20053;-78
2022/03/17 05:41:54;;;;;;;8.90;2.90;;;;;;;;;;4986592;28;20045;-80
2022/03/17 05:44:19;;;;;;;11.73;2.80;;;;;;;;;;5015139;28;20097;-81
2022/03/17 05:46:44;;;;;;;12.98;3.08;;;;;;;;;;4979849;28;20092;-80
2022/03/17 05:49:09;;;;;;;7.85;3.03;;;;;;;;;;4988974;28;20030;-80
2022/03/17 05:51:35;;;;;;;6.72;2.33;;;;;;;;;;5004154;28;20113;-80
2022/03/17 05:54:00;;;;;;;8.43;2.75;;;;;;;;;;4989082;28;20034;-79
2022/03/17 05:56:25;;;;;;;11.57;2.38;;;;;;;;;;5020667;28;20390;-83
2022/03/17 05:58:51;;;;;;;7.85;2.40;;;;;;;;;;4988946;28;20113;-80
2022/03/17 06:01:16;;;;;;;9.40;2.10;;;;;;;;;;5017976;28;20478;-85
2022/03/17 06:03:42;;;;;;;5.68;2.00;;;;;;;;;;4989478;28;20034;-80
2022/03/17 06:06:07;;;;;;;7.63;1.98;;;;;;;;;;4989005;28;20101;-86
2022/03/17 06:08:32;;;;;;;5.20;1.90;;;;;;;;;;4987640;28;20197;-86
2022/03/17 06:10:58;;;;;;;4.22;1.65;;;;;;;;;;4989217;28;20141;-85
2022/03/17 06:13:23;;;;;;;10.48;2.38;;;;;;;;;;4986977;28;20038;-80
2022/03/17 06:15:48;;;;;;;10.43;2.28;;;;;;;;;;4987891;28;20018;-80
2022/03/17 06:18:14;;;;;;;5.10;1.80;;;;;;;;;;4986847;28;20053;-85
2022/03/17 06:20:39;;;;;;;6.10;1.70;;;;;;;;;;4989371;28;20034;-80
2022/03/17 06:23:06;;;;;;;9.40;1.90;;;;;;;;;;5020465;28;20022;-80
2022/03/17 06:25:34;;;;;;;6.40;1.95;;;;;;;;;;4991411;28;20110;-80
2022/03/17 06:28:10;;;;;;;6.43;1.67;;;;;;;;;;4986977;28;20138;-80
2022/03/17 06:30:39;;;;;;;7.00;1.85;;;;;;;;;;4990355;28;20046;-86
2022/03/17 06:33:05;;;;;;;7.57;2.13;;;;;;;;;;4991503;28;20085;-79
2022/03/17 06:35:31;;;;;;;6.97;1.80;;;;;;;;;;4986348;28;20030;-80
2022/03/17 06:37:58;;;;;;;5.68;1.75;;;;;;;;;;4988024;28;20046;-87
2022/03/17 06:40:25;;;;;;;8.38;2.03;;;;;;;;;;4988886;28;20482;-86
2022/03/17 06:42:51;;;;;;;7.70;1.90;;;;;;;;;;4986799;28;20038;-84
2022/03/17 06:45:18;;;;;;;7.65;1.58;;;;;;;;;;5007447;28;20108;-80
2022/03/17 06:47:44;;;;;;;9.00;1.92;;;;;;;;;;5022553;28;20422;-80
2022/03/17 06:50:11;;;;;;;10.88;1.85;;;;;;;;;;4991497;28;20069;-85
2022/03/17 06:52:39;;;;;;;7.47;1.60;;;;;;;;;;4994126;28;20081;-85
2022/03/17 06:55:05;;;;;;;8.38;1.58;;;;;;;;;;4990455;28;20053;-84
2022/03/17 06:57:31;;;;;;;7.35;1.52;;;;;;;;;;4989553;28;20499;-79
2022/03/17 06:59:56;;;;;;;7.70;2.10;;;;;;;;;;4986417;28;20030;-82
2022/03/17 07:02:22;;;;;;;8.85;1.55;;;;;;;;;;4989763;28;20128;-81
2022/03/17 07:04:47;;;;;;;5.35;1.45;;;;;;;;;;4991172;28;20508;-85
2022/03/17 07:07:13;;;;;;;6.20;1.70;;;;;;;;;;4989865;28;20424;-82
2022/03/17 07:09:39;;;;;;;4.97;1.40;;;;;;;;;;4989333;28;20084;-80
2022/03/17 07:12:05;;;;;;;8.60;1.70;;;;;;;;;;4987858;28;20053;-85
2022/03/17 07:14:31;;;;;;;8.00;1.70;;;;;;;;;;4990212;28;20062;-84
2022/03/17 07:16:56;;;;;;;7.88;1.48;;;;;;;;;;4985508;28;20019;-85
2022/03/17 07:19:25;;;;;;;6.07;1.40;;;;;;;;;;5014084;28;20033;-84
2022/03/17 07:21:52;;;;;;;8.15;1.40;;;;;;;;;;4984432;28;20475;-81
2022/03/17 07:24:17;;;;;;;7.78;1.65;;;;;;;;;;4985209;28;20030;-86
2022/03/17 07:26:43;;;;;;;8.02;1.60;;;;;;;;;;5014240;28;20030;-81
2022/03/17 07:29:08;;;;;;;8.38;1.40;;;;;;;;;;4991692;28;20186;-86
2022/03/17 07:31:34;;;;;;;10.25;2.22;;;;;;;;;;4991077;28;20026;-85
2022/03/17 07:34:00;;;;;;;9.07;1.38;;;;;;;;;;4990248;28;20030;-85
2022/03/17 07:36:26;;;;;;;11.77;1.63;;;;;;;;;;4991823;28;20471;-84
2022/03/17 07:38:54;;;;;;;6.47;1.75;;;;;;;;;;5016999;28;20563;-81
2022/03/17 07:41:20;;;;;;;6.72;1.27;;;;;;;;;;4984241;28;20052;-82
2022/03/17 07:43:46;;;;;;;8.60;1.10;;;;;;;;;;5002936;28;20053;-81
2022/03/17 07:46:12;;;;;;;12.73;1.30;;;;;;;;;;4998337;28;20391;-87
2022/03/17 07:48:38;;;;;;;9.98;1.45;;;;;;;;;;4994365;28;20026;-87
2022/03/17 07:51:03;;;;;;;7.82;1.80;;;;;;;;;;4994693;28;20036;-85
2022/03/17 07:53:29;;;;;;;7.20;1.40;;;;;;;;;;5021333;28;20022;-84
2022/03/17 07:55:55;;;;;;;8.63;1.48;;;;;;;;;;4992251;28;20026;-82
2022/03/17 07:58:26;;;;;;;6.57;1.52;;;;;;;;;;4992704;28;20062;-88
2022/03/17 08:00:53;;;;;;;10.07;1.55;;;;;;;;;;4992828;28;20026;-81
2022/03/17 08:03:19;;;;;;;9.93;1.30;;;;;;;;;;4992633;28;20645;-85
2022/03/17 08:05:48;;;;;;;10.27;1.35;;;;;;;;;;5024019;28;20030;-81
2022/03/17 08:08:15;;;;;;;9.50;1.50;;;;;;;;;;4994762;28;20025;-81
2022/03/17 08:10:41;;;;;;;8.73;1.45;;;;;;;;;;4992596;28;20053;-81
2022/03/17 08:13:08;;;;;;;10.73;1.67;;;;;;;;;;4992543;28;20065;-83
2022/03/17 08:15:33;;;;;;;11.73;2.05;;;;;;;;;;4993219;28;20014;-84
2022/03/17 08:17:59;;;;;;;7.40;1.30;;;;;;;;;;5025220;28;20393;-87
2022/03/17 08:20:24;;;;;;;7.93;1.25;;;;;;;;;;4992791;28;20030;-84
2022/03/17 08:22:50;;;;;;;8.55;1.30;;;;;;;;;;4992664;28;20026;-82
2022/03/17 08:25:18;;;;;;;7.47;1.63;;;;;;;;;;4992273;28;20038;-81
2022/03/17 08:27:43;;;;;;;13.10;2.17;;;;;;;;;;4989250;28;20046;-87
2022/03/17 08:30:10;;;;;;;9.30;1.30;;;;;;;;;;4991830;28;20099;-82
2022/03/17 08:32:35;;;;;;;10.63;1.10;;;;;;;;;;4991217;28;20034;-85
2022/03/17 08:35:02;;;;;;;7.53;1.95;;;;;;;;;;4991570;28;20034;-81
2022/03/17 08:37:27;;;;;;;9.32;1.08;;;;;;;;;;4988502;28;20100;-82
2022/03/17 08:39:52;;;;;;;7.30;1.30;;;;;;;;;;4988084;28;20050;-80
2022/03/17 08:42:18;;;;;;;10.02;1.48;;;;;;;;;;4991550;28;20089;-81
2022/03/17 08:44:43;;;;;;;6.90;1.10;;;;;;;;;;4991644;28;20061;-82
2022/03/17 08:49:52;;;;;;;7.10;1.40;;;;;;;;;;4994873;28;20081;-82
2022/03/17 08:52:19;;;;;;;5.57;1.05;;;;;;;;;;4988845;28;20026;-81
2022/03/17 08:54:45;;;;;;;5.45;1.08;;;;;;;;;;4990682;28;20035;-87
2022/03/17 08:57:12;;;;;;;8.15;1.17;;;;;;;;;;4989638;28;20077;-82
2022/03/17 08:59:37;;;;;;;7.95;0.80;;;;;;;;;;4990819;28;20046;-82
2022/03/17 09:02:08;;;;;;;8.15;1.30;;;;;;;;;;4991532;28;20441;-85
2022/03/17 09:04:34;;;;;;;5.25;1.23;;;;;;;;;;4988847;28;20061;-85
2022/03/17 09:07:01;;;;;;;11.02;0.82;;;;;;;;;;4991361;28;20031;-81
2022/03/17 09:09:27;;;;;;;6.47;0.90;;;;;;;;;;4990925;28;20035;-82
2022/03/17 09:11:53;;;;;;;5.72;1.25;;;;;;;;;;4990376;28;20022;-88
2022/03/17 09:14:19;;;;;;;9.57;1.17;;;;;;;;;;4989062;28;20095;-82
2022/03/17 09:16:45;;;;;;;9.25;1.25;;;;;;;;;;4990040;28;20422;-87
2022/03/17 09:19:11;;;;;;;11.23;1.58;;;;;;;;;;4991174;28;20030;-82
2022/03/17 09:21:36;;;;;;;7.53;1.00;;;;;;;;;;4987031;28;20034;-88
2022/03/17 09:24:03;;;;;;;5.88;1.08;;;;;;;;;;4989707;28;20026;-88
2022/03/17 09:26:29;;;;;;;11.05;1.58;;;;;;;;;;4989317;28;20077;-86
2022/03/17 09:28:55;;;;;;;6.75;1.70;;;;;;;;;;4986183;28;20026;-85
2022/03/17 09:31:20;;;;;;;7.45;0.80;;;;;;;;;;4988155;28;20031;-82
2022/03/17 09:33:46;;;;;;;7.13;1.15;;;;;;;;;;4989556;28;20046;-83
2022/03/17 09:36:11;;;;;;;7.30;1.15;;;;;;;;;;4988885;28;20117;-87
2022/03/17 09:38:37;;;;;;;7.43;1.27;;;;;;;;;;5014528;28;20482;-83
2022/03/17 09:41:23;;;;;;;8.27;1.13;;;;;;;;;;4985556;28;20567;-81
2022/03/17 09:43:48;;;;;;;9.25;1.20;;;;;;;;;;4991197;28;20085;-85
2022/03/17 09:46:15;;;;;;;5.18;1.08;;;;;;;;;;4989992;28;20034;-82
2022/03/17 09:48:42;;;;;;;6.82;1.27;;;;;;;;;;4984500;28;20026;-83
2022/03/17 09:51:07;;;;;;;11.20;1.42;;;;;;;;;;4989680;28;20030;-82
2022/03/17 09:53:32;;;;;;;6.10;1.02;;;;;;;;;;5019308;28;20033;-85
2022/03/17 09:55:58;;;;;;;6.53;1.50;;;;;;;;;;5016797;28;20168;-84
2022/03/17 09:58:23;;;;;;;6.10;1.27;;;;;;;;;;4988499;28;20136;-84
2022/03/17 10:00:48;;;;;;;7.93;1.20;;;;;;;;;;4987145;28;20054;-81
2022/03/17 10:03:17;;;;;;;5.53;1.10;;;;;;;;;;4989818;28;20457;-86
2022/03/17 10:05:47;;;;;;;5.93;1.35;;;;;;;;;;4990272;28;20478;-82
2022/03/17 10:08:14;;;;;;;4.47;1.23;;;;;;;;;;4990050;28;20491;-82
2022/03/17 10:10:41;;;;;;;8.25;1.27;;;;;;;;;;4988349;28;20030;-83
2022/03/17 10:13:18;;;;;;;5.90;1.35;;;;;;;;;;4987885;28;20088;-86
2022/03/17 10:15:49;;;;;;;7.43;1.17;;;;;;;;;;4991149;28;20026;-88
2022/03/17 10:18:24;;;;;;;6.15;1.02;;;;;;;;;;4989626;28;20031;-88
2022/03/17 10:21:24;;;;;;;3.65;0.90;;;;;;;;;;4992680;28;20026;-87
2022/03/17 10:23:56;;;;;;;7.32;1.30;;;;;;;;;;4993889;28;20042;-88
2022/03/17 10:26:40;;;;;;;5.30;1.50;;;;;;;;;;5020626;28;20391;-81
2022/03/17 10:29:29;;;;;;;4.07;1.23;;;;;;;;;;4995234;28;20034;-87
2022/03/17 10:32:01;;;;;;;6.47;1.30;;;;;;;;;;4985118;28;20038;-86
2022/03/17 10:34:29;;;;;;;7.25;1.48;;;;;;;;;;4987915;28;20026;-81
2022/03/17 10:37:13;;;;;;;5.68;1.45;;;;;;;;;;4992157;28;20026;-82
2022/03/17 10:39:55;;;;;;;5.90;1.35;;;;;;;;;;4992846;28;20064;-82
2022/03/17 10:42:23;;;;;;;6.95;1.38;;;;;;;;;;4990761;28;20030;-82
2022/03/17 10:44:55;;;;;;;7.90;1.77;;;;;;;;;;4993118;28;20058;-83
2022/03/17 10:47:27;;;;;;;8.60;1.40;;;;;;;;;;4993486;28;20022;-85
2022/03/17 10:50:18;;;;;;;6.27;1.53;;;;;;;;;;4992979;28;20030;-86
2022/03/17 10:52:45;;;;;;;9.60;1.80;;;;;;;;;;4993286;28;20449;-87
2022/03/17 10:55:11;;;;;;;5.63;1.77;;;;;;;;;;4988376;28;20041;-87
2022/03/17 10:57:37;;;;;;;6.18;1.67;;;;;;;;;;5017825;28;20034;-80
2022/03/17 11:00:23;;;;;;;5.28;1.60;;;;;;;;;;4992119;28;20056;-82
2022/03/17 11:02:50;;;;;;;5.13;1.60;;;;;;;;;;4984441;28;20030;-83
2022/03/17 11:05:18;;;;;;;7.13;2.00;;;;;;;;;;4992695;28;20063;-84
2022/03/17 11:07:47;;;;;;;5.85;2.08;;;;;;;;;;4995127;28;20112;-88
2022/03/17 11:10:16;;;;;;;6.13;1.92;;;;;;;;;;4989826;28;20134;-81
2022/03/17 11:12:44;;;;;;;7.88;2.08;;;;;;;;;;4990284;28;20042;-87
2022/03/17 11:15:10;;;;;;;6.55;1.92;;;;;;;;;;4989213;28;20026;-81
2022/03/17 11:17:48;;;;;;;5.57;1.80;;;;;;;;;;4989071;28;20041;-81
2022/03/17 11:20:18;;;;;;;6.95;2.13;;;;;;;;;;4993385;28;20298;-82
2022/03/17 11:23:02;;;;;;;7.82;1.95;;;;;;;;;;4992587;28;20928;-81
2022/03/17 11:25:34;;;;;;;7.45;1.70;;;;;;;;;;4993702;28;20037;-81
2022/03/17 11:28:01;;;;;;;4.68;1.73;;;;;;;;;;5003533;28;20026;-82
2022/03/17 11:30:31;;;;;;;7.35;1.80;;;;;;;;;;4992623;28;20026;-85
2022/03/17 11:32:58;;;;;;;8.05;1.95;;;;;;;;;;5018555;28;20116;-85
2022/03/17 11:35:32;;;;;;;3.83;1.55;;;;;;;;;;4992288;28;20022;-81
2022/03/17 11:38:17;;;;;;;6.75;1.70;;;;;;;;;;4985822;28;20026;-86
2022/03/17 11:41:15;;;;;;;5.70;1.90;;;;;;;;;;5022369;28;20033;-85
2022/03/17 11:44:01;;;;;;;7.07;1.70;;;;;;;;;;5014970;28;20515;-85
2022/03/17 11:46:46;;;;;;;8.63;1.90;;;;;;;;;;4991670;28;20022;-87
2022/03/17 11:49:19;;;;;;;4.03;2.13;;;;;;;;;;4992849;28;20065;-81
2022/03/17 11:51:59;;;;;;;6.32;1.90;;;;;;;;;;4992388;28;20394;-82
2022/03/17 11:54:25;;;;;;;6.63;1.88;;;;;;;;;;4990814;28;20042;-88
2022/03/17 11:56:56;;;;;;;4.53;1.95;;;;;;;;;;4991074;28;20029;-85
2022/03/17 11:59:27;;;;;;;9.65;2.38;;;;;;;;;;4992152;28;20029;-81
2022/03/17 12:01:55;;;;;;;6.82;2.05;;;;;;;;;;4987307;28;20030;-87
2022/03/17 12:04:28;;;;;;;10.02;2.75;;;;;;;;;;4990484;28;20023;-85
2022/03/17 12:07:05;;;;;;;4.72;2.00;;;;;;;;;;4989199;28;20030;-82
2022/03/17 12:09:32;;;;;;;10.48;2.55;;;;;;;;;;4988933;28;20109;-82
2022/03/17 12:11:58;;;;;;;6.63;2.60;;;;;;;;;;4969772;28;20034;-88
2022/03/17 12:14:24;;;;;;;3.88;1.70;;;;;;;;;;5020057;28;20030;-81
2022/03/17 12:16:54;;;;;;;5.28;1.83;;;;;;;;;;4991972;28;20049;-87
2022/03/17 12:19:34;;;;;;;6.15;1.90;;;;;;;;;;4993455;28;20034;-82
2022/03/17 12:22:03;;;;;;;5.80;2.00;;;;;;;;;;5005876;28;20034;-88
2022/03/17 12:24:54;;;;;;;5.50;2.00;;;;;;;;;;4991710;28;20030;-88
2022/03/17 12:27:29;;;;;;;10.35;2.85;;;;;;;;;;4990920;28;20041;-87
2022/03/17 12:29:57;;;;;;;7.10;2.42;;;;;;;;;;4989660;28;20030;-82
2022/03/17 12:32:23;;;;;;;5.07;2.53;;;;;;;;;;4993327;28;20425;-82
2022/03/17 12:34:52;;;;;;;5.78;2.67;;;;;;;;;;4986259;28;20030;-81
2022/03/17 12:37:19;;;;;;;7.28;2.60;;;;;;;;;;4991804;28;20395;-81
2022/03/17 12:39:50;;;;;;;6.28;2.90;;;;;;;;;;4988221;28;20118;-88
2022/03/17 12:42:25;;;;;;;7.13;2.53;;;;;;;;;;5023600;28;20501;-83
2022/03/17 12:44:53;;;;;;;7.93;2.58;;;;;;;;;;5015652;28;20053;-87
2022/03/17 12:47:21;;;;;;;5.30;2.33;;;;;;;;;;4992538;28;20034;-83
2022/03/17 12:49:48;;;;;;;5.65;2.55;;;;;;;;;;4993236;28;20044;-82
2022/03/17 12:52:22;;;;;;;6.75;2.58;;;;;;;;;;4991582;28;20034;-85
2022/03/17 12:54:55;;;;;;;5.45;2.53;;;;;;;;;;4990472;28;20022;-82
2022/03/17 12:57:22;;;;;;;6.97;2.47;;;;;;;;;;4983816;28;20022;-82
2022/03/17 12:59:47;;;;;;;6.07;2.60;;;;;;;;;;5020997;28;20022;-87
2022/03/17 13:02:18;;;;;;;6.13;2.40;;;;;;;;;;4991568;28;20080;-86
2022/03/17 13:04:46;;;;;;;7.55;2.50;;;;;;;;;;4993602;28;20084;-80
2022/03/17 13:07:14;;;;;;;8.85;2.40;;;;;;;;;;4991507;28;20026;-86
2022/03/17 13:09:40;;;;;;;5.70;2.00;;;;;;;;;;4987606;28;20046;-80
2022/03/17 13:15:12;;;;;;;5.78;2.08;;;;;;;;;;4988578;28;20050;-79
2022/03/17 13:17:40;;;;;;;6.70;2.45;;;;;;;;;;4990186;28;20108;-86
2022/03/17 13:20:08;;;;;;;5.03;2.25;;;;;;;;;;4988996;28;20474;-87
2022/03/17 13:22:39;;;;;;;6.00;1.90;;;;;;;;;;4985215;28;20073;-81
2022/03/17 13:25:14;;;;;;;5.57;1.80;;;;;;;;;;4989025;28;20215;-87
2022/03/17 13:27:42;;;;;;;6.47;1.60;;;;;;;;;;4991798;28;20030;-84
2022/03/17 13:30:13;;;;;;;5.00;1.55;;;;;;;;;;4986291;28;20018;-87
2022/03/17 13:32:42;;;;;;;4.68;1.60;;;;;;;;;;4990988;28;20493;-84
2022/03/17 13:35:09;;;;;;;4.90;1.60;;;;;;;;;;4989833;28;20105;-79
2022/03/17 13:37:39;;;;;;;3.92;1.65;;;;;;;;;;4990444;28;20037;-81
2022/03/17 13:40:16;;;;;;;6.45;1.80;;;;;;;;;;4989684;28;20041;-87
2022/03/17 13:43:01;;;;;;;4.82;1.60;;;;;;;;;;4991896;28;20023;-79
2022/03/17 13:45:33;;;;;;;5.55;2.20;;;;;;;;;;4990148;28;20043;-80
2022/03/17 13:48:01;;;;;;;4.20;1.45;;;;;;;;;;5017512;28;20483;-85
2022/03/17 13:50:27;;;;;;;8.32;2.28;;;;;;;;;;4987750;28;20049;-81
2022/03/17 13:53:00;;;;;;;6.00;1.50;;;;;;;;;;4986247;28;20153;-80
2022/03/17 13:55:36;;;;;;;4.07;1.50;;;;;;;;;;4981960;28;20054;-79
2022/03/17 13:58:27;;;;;;;4.68;1.60;;;;;;;;;;4990863;28;20482;-86
2022/03/17 14:00:56;;;;;;;6.93;1.75;;;;;;;;;;4989497;28;20050;-80
2022/03/17 14:03:28;;;;;;;6.05;1.60;;;;;;;;;;4989237;28;20030;-85
2022/03/17 14:06:14;;;;;;;6.63;2.28;;;;;;;;;;4988167;28;20055;-82
2022/03/17 14:08:54;;;;;;;6.60;2.55;;;;;;;;;;5007204;28;20081;-80
2022/03/17 14:11:20;;;;;;;7.35;1.60;;;;;;;;;;5003196;28;20051;-85
2022/03/17 14:14:00;;;;;;;5.40;1.42;;;;;;;;;;4990917;28;20027;-85
2022/03/17 14:16:28;;;;;;;4.40;1.42;;;;;;;;;;5016192;28;20018;-85
2022/03/17 14:18:54;;;;;;;4.55;1.30;;;;;;;;;;4989542;28;20038;-85
2022/03/17 14:21:21;;;;;;;3.35;1.20;;;;;;;;;;4987299;28;20038;-80
2022/03/17 14:26:33;;;;;;;5.20;1.63;;;;;;;;;;4982767;28;20089;-80
2022/03/17 14:29:00;;;;;;;2.75;1.30;;;;;;;;;;4984716;28;20026;-80
2022/03/17 14:31:27;;;;;;;6.80;1.67;;;;;;;;;;4986562;28;20022;-86
2022/03/17 14:33:53;;;;;;;6.40;1.60;;;;;;;;;;4985986;28;20034;-80
2022/03/17 14:36:19;;;;;;;5.43;1.83;;;;;;;;;;4990307;28;20037;-84
2022/03/17 14:38:47;;;;;;;3.92;1.80;;;;;;;;;;4991582;28;20085;-84
2022/03/17 14:41:15;;;;;;;5.03;1.60;;;;;;;;;;4986868;28;20413;-78
2022/03/17 14:43:44;;;;;;;5.55;1.45;;;;;;;;;;4988979;28;20276;-83
2022/03/17 14:46:10;;;;;;;6.80;1.65;;;;;;;;;;4986763;28;20038;-86
2022/03/17 14:48:36;;;;;;;3.88;1.15;;;;;;;;;;4988150;28;20553;-79
2022/03/17 14:51:03;;;;;;;5.55;1.10;;;;;;;;;;4980571;28;20046;-83
2022/03/17 14:53:32;;;;;;;5.65;1.17;;;;;;;;;;4982267;28;20072;-80
2022/03/17 14:56:06;;;;;;;4.43;1.15;;;;;;;;;;4981376;28;20030;-81
2022/03/17 14:58:32;;;;;;;4.70;1.45;;;;;;;;;;4983644;28;20026;-80
2022/03/17 15:00:58;;;;;;;4.50;1.10;;;;;;;;;;4984336;28;20034;-84